Central Oregon RPC :: DREWSEY A

liberation: 2021-08-21  07:00     latitude: 43.807153     longitude: -118.378439 96 birds
# LOFT PRING MILES ARRIVAL SPEED ToWin
1 RUETER FAMILY LOFT AU21-CORP-807 144.173 2021-08-21 10:25:10.922 1236.679 00:00:00
2 RUETER FAMILY LOFT AU21-CORP-888 144.173 2021-08-21 10:25:13.055 1236.465 00:00:02
3 RUETER FAMILY LOFT AU21-CORP-836 144.173 2021-08-21 10:25:13.820 1236.388 00:00:03
4 RUETER FAMILY LOFT AU21-CORP-828 144.173 2021-08-21 10:25:16.480 1236.121 00:00:06
5 RUETER FAMILY LOFT AU21-CORP-891 144.173 2021-08-21 10:25:24.925 1235.274 00:00:14
6 RUETER FAMILY LOFT AU21-CORP-919 144.173 2021-08-21 10:25:53.114 1232.455 00:00:42
7 RUETER FAMILY LOFT AU21-CORP-830 144.173 2021-08-21 10:26:24.508 1229.331 00:01:14
8 AMERICAN LOFT AU21-CORP-0347 128.045 2021-08-21 10:07:43.064 1200.523 00:05:29
9 AMERICAN LOFT AU21-CORP-0336 128.045 2021-08-21 10:08:31.322 1195.401 00:06:18
10 AMERICAN LOFT AU21-CORP-0327 128.045 2021-08-21 10:08:35.246 1194.987 00:06:21
11 TOPIGEONUSA AU21-CORP-1020 145.351 2021-08-21 10:35:05.586 1189.331 00:08:14
12 TOPIGEONUSA AU21-CORP-1013 145.351 2021-08-21 10:35:06.466 1189.250 00:08:15
13 TOPIGEONUSA AU21-CORP-1014 145.351 2021-08-21 10:35:09.531 1188.968 00:08:18
14 STEELE LOFT AU21-CORP-0108 146.385 2021-08-21 10:37:22.407 1185.229 00:09:03
15 STEELE LOFT AU21-CORP-0195 146.385 2021-08-21 10:37:57.755 1182.025 00:09:38
16 TOPIGEONUSA AU21-CORP-1042 145.351 2021-08-21 10:36:53.720 1179.449 00:10:02
17 TOPIGEONUSA AU21-JEDD-1191 145.351 2021-08-21 10:36:57.240 1179.130 00:10:06
18 AMERICAN LOFT AU21-CORP-0359 128.045 2021-08-21 10:11:10.214 1178.842 00:08:56
19 AMERICAN LOFT AU21-CORP-0324 128.045 2021-08-21 10:11:13.269 1178.528 00:08:59
20 AMERICAN LOFT AU21-CORP-0321 128.045 2021-08-21 10:11:15.199 1178.330 00:09:01
21 AMERICAN LOFT AU21-CORP-0310 128.045 2021-08-21 10:22:02.871 1115.377 00:19:49
22 AMERICAN LOFT AU21-CORP-0356 128.045 2021-08-21 10:22:08.542 1114.855 00:19:55
23 ROCKY TOP AU21-ARPU-11214 137.131 2021-08-21 10:39:30.232 1099.525 00:24:21
24 AMERICAN LOFT AU21-CORP-0303 128.045 2021-08-21 10:31:26.251 1065.844 00:29:12
25 LUCAS CRAMER AU21-CORP-403 145.627 2021-08-21 11:06:20.276 1040.453 00:39:05
26 LUCAS CRAMER AU21-CORP-444 145.627 2021-08-21 11:06:30.938 1039.703 00:39:16
27 LUCAS CRAMER AU21-CORP-405 145.627 2021-08-21 11:06:39.940 1039.071 00:39:25
28 LUCAS CRAMER AU21-CORP-411 145.627 2021-08-21 11:06:42.957 1038.859 00:39:28
29 LUCAS CRAMER AU21-CORP-454 145.627 2021-08-21 11:11:57.415 1017.250 00:44:42
30 LUCAS CRAMER AU21-CORP-442 145.627 2021-08-21 11:12:25.817 1015.342 00:45:11
31 LUCAS CRAMER AU21-CORP-413 145.627 2021-08-21 11:14:21.314 1007.658 00:47:06
32 LUCAS CRAMER AU21-CORP-464 145.627 2021-08-21 11:14:27.382 1007.257 00:47:12
33 STEELE LOFT AU21-CORP-0116 146.385 2021-08-21 11:19:31.099 992.752 00:51:11
34 TOPIGEONUSA AU21-CORP-1030 145.351 2021-08-21 11:18:53.879 988.099 00:52:02
35 ROCKY TOP AU21-CORP-0765 137.131 2021-08-21 11:06:27.636 979.264 00:51:18
36 STEELE LOFT AU21-CORP-0127 146.385 2021-08-21 11:26:41.854 966.028 00:58:22
37 LUCAS CRAMER AU21-CORP-459 145.627 2021-08-21 11:25:31.653 965.260 00:58:17
38 STEELE LOFT AU21-CORP-0106 146.385 2021-08-21 11:27:16.132 963.963 00:58:56
39 AMERICAN LOFT AU21-CORP-0313 128.045 2021-08-21 10:53:59.697 963.096 00:51:46
40 AMERICAN LOFT AU21-CORP-0323 128.045 2021-08-21 10:56:31.531 952.791 00:54:18
41 ROCKY TOP AU21-RARE-0009 137.131 2021-08-21 11:13:24.476 952.417 00:58:15
42 ROCKY TOP AU21-JEDD-11825 137.131 2021-08-21 11:13:25.697 952.340 00:58:16
43 ROCKY TOP AU21-ARPU-11218 137.131 2021-08-21 11:13:28.176 952.185 00:58:19
44 LUCAS CRAMER AU21-CORP-462 145.627 2021-08-21 11:30:54.548 946.085 01:03:39
45 RUETER FAMILY LOFT AU21-CORP-923 144.173 2021-08-21 11:37:09.222 915.537 01:11:58
46 ROCKY TOP AU21-ARPU-11217 137.131 2021-08-21 11:27:14.756 903.100 01:12:05
47 ROCKY TOP AU21-CORP-0721 137.131 2021-08-21 11:32:53.814 884.400 01:17:44
48 RUETER FAMILY LOFT AU21-CORP-868 144.173 2021-08-21 11:48:27.937 879.635 01:23:17
49 ROCKY TOP AU21-ARPU-11209 137.131 2021-08-21 11:43:31.812 851.232 01:28:22
50 LUCAS CRAMER AU21-CORP-408 145.627 2021-08-21 12:07:50.272 832.591 01:40:35
51 RUETER FAMILY LOFT AU21-CORP-896 144.173 2021-08-21 12:09:08.103 820.820 01:43:57
52 RUETER FAMILY LOFT AU21-CORP-887 144.173 2021-08-21 12:12:08.671 812.907 01:46:58
53 TOPIGEONUSA AU21-CORP-1011 145.351 2021-08-21 12:20:15.527 798.782 01:53:24
54 LUCAS CRAMER AU21-CORP-401 145.627 2021-08-21 12:49:44.262 732.844 02:22:29
55 ROCKY TOP AU21-CORP-0753 137.131 2021-08-21 12:37:41.931 714.690 02:22:32
56 ROCKY TOP AU21-ARPU-11213 137.131 2021-08-21 12:39:03.064 711.839 02:23:53
57 TOPIGEONUSA AU21-CORP-1009 145.351 2021-08-21 13:04:31.464 701.783 02:37:40
58 ROCKY TOP AU21-CORP-0701 137.131 2021-08-21 12:58:25.322 673.368 02:43:16
59 RUETER FAMILY LOFT AU21-CORP-881 144.173 2021-08-21 13:30:57.712 649.026 03:05:47
60 LUCAS CRAMER AU21-CORP-406 145.627 2021-08-21 14:05:12.146 602.779 03:37:57
61 RUETER FAMILY LOFT AU21-CORP-813 144.173 2021-08-21 14:02:31.476 600.543 03:37:21
62 AMERICAN LOFT AU21-CORP-0354 128.045 2021-08-21 13:28:39.395 579.842 03:26:26
63 LUCAS CRAMER AU21-CORP-404 145.627 2021-08-21 14:46:44.476 549.133 04:19:29
64 ROCKY TOP AU21-JEDD-11827 137.131 2021-08-21 14:50:42.642 512.735 04:35:33
65 STEELE LOFT AU21-CORP-0125 146.385 2021-08-21 15:40:39.290 494.833 05:12:20
66 ROCKY TOP AU21-CORP-0761 137.131 2021-08-21 17:13:14.050 393.569 06:58:04
67 ROCKY TOP AU21-PNW-3505 137.131 2021-08-21 18:28:47.049 350.400 08:13:37
68 ROCKY TOP AU21-CORP-0711 137.131 2021-08-21 18:59:02.468 335.655 08:43:53
69 STEELE LOFT AU21-CORP-0162 146.385 2021-08-21 19:57:15.680 331.468 09:28:56
70 STEELE LOFT AU21-CORP-0161 146.385 2021-08-22 08:10:56.877 270.533 12:24:00
71 STEELE LOFT AU21-CORP-0167 146.385 2021-08-22 08:49:30.523 260.005 13:02:34
72 AMERICAN LOFT AU21-CORP-0308 128.045 2021-08-22 08:59:55.120 225.066 13:39:04
73 STEELE LOFT AU21-BORD-21056 146.385 2021-08-22 11:28:57.695 223.965 15:42:01
74 AMERICAN LOFT AU21-CORP-0335 128.045 2021-08-22 09:15:26.844 221.629 13:54:36
75 STEELE LOFT AU21-CORP-0120 146.385 2021-08-22 15:19:29.901 186.574 19:32:33
76 LUCAS CRAMER AU21-CORP-429 145.627 2021-08-22 23:36:35.741 152.787 24:30:16
JACKSONS LOFT AU21-CORP-0214 0 0000-00-00 00:00:00.000 0.000 00:00:00
JACKSONS LOFT AU21-CORP-0216 0 0000-00-00 00:00:00.000 0.000 00:00:00
JACKSONS LOFT AU21-CORP-0219 0 0000-00-00 00:00:00.000 0.000 00:00:00
JACKSONS LOFT AU21-CORP-0222 0 0000-00-00 00:00:00.000 0.000 00:00:00
JACKSONS LOFT AU21-CORP-0223 0 0000-00-00 00:00:00.000 0.000 00:00:00
JACKSONS LOFT AU21-CORP-0226 0 0000-00-00 00:00:00.000 0.000 00:00:00
JACKSONS LOFT AU21-CORP-0229 0 0000-00-00 00:00:00.000 0.000 00:00:00
JACKSONS LOFT AU21-CORP-0233 0 0000-00-00 00:00:00.000 0.000 00:00:00
JACKSONS LOFT AU21-CORP-0234 0 0000-00-00 00:00:00.000 0.000 00:00:00
JACKSONS LOFT AU21-CORP-0244 0 0000-00-00 00:00:00.000 0.000 00:00:00
ROCKY TOP AU21-CORP-0706 0 0000-00-00 00:00:00.000 0.000 00:00:00
ROCKY TOP AU21-CORP-0732 0 0000-00-00 00:00:00.000 0.000 00:00:00
RUETER FAMILY LOFT AU21-CORP-818 0 0000-00-00 00:00:00.000 0.000 00:00:00
RUETER FAMILY LOFT AU21-CORP-882 0 0000-00-00 00:00:00.000 0.000 00:00:00
STEELE LOFT AU21-CORP-0137 0 0000-00-00 00:00:00.000 0.000 00:00:00
STEELE LOFT AU21-JEDD-11833 0 0000-00-00 00:00:00.000 0.000 00:00:00
STEELE LOFT AU21-JEDD-11882 0 0000-00-00 00:00:00.000 0.000 00:00:00
STEELE LOFT AU21-JEDD-11904 0 0000-00-00 00:00:00.000 0.000 00:00:00
TOPIGEONUSA AU21-CORP-1005 0 0000-00-00 00:00:00.000 0.000 00:00:00
TOPIGEONUSA AU21-MDC-1219 0 0000-00-00 00:00:00.000 0.000 00:00:00